Time;durP1;ratioP1;P1;durP2;ratioP2;P2;SDS_P1;SDS_P2;PMS_P1;PMS_P2;Temp;Humidity;BMP_temperature;BMP_pressure;BME280_temperature;BME280_humidity;BME280_pressure;Samples;Min_cycle;Max_cycle;Signal;HPM_P1;HPM_P2
2023/12/06 00:01:42;;;;;;;16.63;7.68;;;;;;;3.93;78.57;93562.53;5063751;28;20089;-79
2023/12/06 00:04:08;;;;;;;15.13;7.28;;;;;;;3.91;78.79;93554.94;5063725;28;20315;-80
2023/12/06 00:06:33;;;;;;;18.55;7.32;;;;;;;3.90;78.63;93555.19;5062313;28;20025;-79
2023/12/06 00:08:59;;;;;;;14.25;7.25;;;;;;;3.92;78.45;93561.75;5063516;28;20025;-78
2023/12/06 00:11:25;;;;;;;16.20;7.15;;;;;;;3.92;78.79;93559.13;5063776;28;20021;-78
2023/12/06 00:13:51;;;;;;;15.48;8.23;;;;;;;3.93;78.92;93559.91;5063472;28;20017;-78
2023/12/06 00:16:16;;;;;;;13.38;7.50;;;;;;;3.95;78.76;93557.81;5063510;28;20028;-82
2023/12/06 00:18:43;;;;;;;12.38;6.50;;;;;;;3.92;78.60;93564.41;5063536;28;20044;-82
2023/12/06 00:21:09;;;;;;;14.68;6.78;;;;;;;3.89;78.77;93559.69;5063351;28;20033;-82
2023/12/06 00:23:34;;;;;;;12.90;6.85;;;;;;;3.90;78.48;93560.47;5063417;28;20028;-81
2023/12/06 00:26:00;;;;;;;14.00;7.55;;;;;;;3.85;78.67;93553.41;5062273;28;20250;-81
2023/12/06 00:28:25;;;;;;;15.40;7.88;;;;;;;3.91;78.59;93554.13;5062317;28;20032;-81
2023/12/06 00:30:51;;;;;;;14.02;6.65;;;;;;;3.92;78.89;93550.44;5062024;28;20139;-82
2023/12/06 00:33:16;;;;;;;15.30;7.53;;;;;;;3.92;78.74;93548.56;5063046;28;20032;-80
2023/12/06 00:35:42;;;;;;;15.35;7.78;;;;;;;3.90;78.71;93539.38;5063057;28;20204;-80
2023/12/06 00:38:07;;;;;;;15.43;6.88;;;;;;;3.93;78.77;93541.44;5063240;28;20020;-81
2023/12/06 00:40:33;;;;;;;15.82;7.72;;;;;;;3.95;78.73;93542.75;5063185;28;20311;-82
2023/12/06 00:42:58;;;;;;;17.45;8.57;;;;;;;3.94;78.65;93521.94;5063021;28;20025;-82
2023/12/06 00:45:24;;;;;;;18.05;8.55;;;;;;;3.92;78.87;93529.34;5063017;28;20039;-81
2023/12/06 00:47:49;;;;;;;18.02;9.13;;;;;;;3.93;79.08;93529.06;5063009;28;20096;-81
2023/12/06 00:50:15;;;;;;;22.38;10.60;;;;;;;3.98;78.78;93533.50;5062918;28;20059;-81
2023/12/06 00:52:40;;;;;;;24.58;12.00;;;;;;;4.02;78.58;93529.22;5062781;28;20021;-81
2023/12/06 00:55:06;;;;;;;21.52;11.43;;;;;;;3.96;78.72;93530.34;5062982;28;20024;-81
2023/12/06 00:57:31;;;;;;;21.17;10.45;;;;;;;3.94;78.89;93524.56;5062833;28;20045;-81
2023/12/06 00:59:57;;;;;;;25.15;11.30;;;;;;;3.94;78.68;93527.22;5062870;28;20369;-81
2023/12/06 01:02:22;;;;;;;23.27;10.00;;;;;;;3.96;78.52;93525.06;5062840;28;20299;-81
2023/12/06 01:04:50;;;;;;;25.67;10.00;;;;;;;3.98;78.29;93528.22;5062817;28;20032;-79
2023/12/06 01:07:17;;;;;;;17.35;8.93;;;;;;;3.97;78.19;93522.16;5062609;28;20027;-79
2023/12/06 01:09:44;;;;;;;18.92;9.02;;;;;;;3.99;77.80;93521.91;5062568;28;20025;-78
2023/12/06 01:12:09;;;;;;;19.30;8.50;;;;;;;4.00;77.73;93518.97;5062728;28;20036;-79
2023/12/06 01:14:34;;;;;;;17.83;8.20;;;;;;;3.99;77.56;93514.00;5062629;28;20223;-78
2023/12/06 01:17:00;;;;;;;15.38;7.63;;;;;;;3.99;77.44;93511.34;5062599;28;20063;-79
2023/12/06 01:19:25;;;;;;;18.60;7.72;;;;;;;3.96;77.32;93510.03;5062685;28;20295;-78
2023/12/06 01:21:51;;;;;;;19.58;7.85;;;;;;;3.95;77.53;93502.44;5062439;28;20223;-79
2023/12/06 01:24:16;;;;;;;15.55;7.65;;;;;;;3.93;77.36;93501.88;5062554;28;20395;-79
2023/12/06 01:26:41;;;;;;;16.70;8.02;;;;;;;3.88;77.61;93494.06;5062525;28;20183;-79
2023/12/06 01:29:08;;;;;;;14.88;7.60;;;;;;;3.87;77.94;93493.28;5062354;28;20092;-79
2023/12/06 01:31:33;;;;;;;17.45;8.45;;;;;;;3.88;77.79;93486.13;5062505;28;20020;-78
2023/12/06 01:34:00;;;;;;;14.48;7.80;;;;;;;3.87;77.73;93489.81;5062270;28;20338;-80
2023/12/06 01:36:26;;;;;;;17.05;8.30;;;;;;;3.87;77.65;93477.44;5062514;28;20021;-83
2023/12/06 01:38:51;;;;;;;16.17;7.78;;;;;;;3.86;77.81;93473.22;5066101;28;20032;-83
2023/12/06 01:41:17;;;;;;;12.88;7.53;;;;;;;3.87;77.73;93471.38;5066611;28;20315;-83
2023/12/06 01:43:43;;;;;;;14.30;6.45;;;;;;;3.85;77.95;93471.66;5066459;28;20200;-83
2023/12/06 01:46:09;;;;;;;12.80;5.60;;;;;;;3.85;77.93;93465.59;5066369;28;20021;-79
2023/12/06 01:48:36;;;;;;;10.07;5.68;;;;;;;3.89;77.54;93469.25;5066283;28;20020;-80
2023/12/06 01:51:03;;;;;;;10.63;4.97;;;;;;;3.81;77.27;93466.16;5066414;28;20088;-80
2023/12/06 01:53:28;;;;;;;11.73;5.40;;;;;;;3.77;78.04;93459.88;5066184;28;20028;-80
2023/12/06 01:55:54;;;;;;;10.10;4.80;;;;;;;3.76;77.90;93462.78;5066451;28;20090;-80
2023/12/06 01:58:20;;;;;;;9.65;4.97;;;;;;;3.75;78.26;93456.75;5065866;28;20075;-80
2023/12/06 02:00:46;;;;;;;7.60;4.72;;;;;;;3.76;78.12;93447.75;5065897;28;20020;-80
2023/12/06 02:03:15;;;;;;;8.70;4.28;;;;;;;3.77;78.32;93448.56;5066102;28;20032;-81
2023/12/06 02:05:40;;;;;;;10.48;5.00;;;;;;;3.78;78.13;93450.91;5065890;28;20033;-81
2023/12/06 02:08:06;;;;;;;9.18;4.30;;;;;;;3.80;78.06;93440.06;5064892;28;20357;-81
2023/12/06 02:10:31;;;;;;;9.77;4.00;;;;;;;3.78;77.99;93444.84;5065829;28;20082;-81
2023/12/06 02:12:57;;;;;;;7.03;3.40;;;;;;;3.76;78.00;93437.22;5066173;28;20074;-81
2023/12/06 02:15:22;;;;;;;6.20;3.28;;;;;;;3.80;77.91;93442.72;5065922;28;20021;-82
2023/12/06 02:17:49;;;;;;;6.30;3.30;;;;;;;3.81;77.64;93445.06;5065786;28;20266;-82
2023/12/06 02:20:15;;;;;;;7.53;3.60;;;;;;;3.80;77.68;93442.72;5065831;28;20315;-81
2023/12/06 02:22:41;;;;;;;6.80;3.42;;;;;;;3.81;77.69;93439.03;5065519;28;20029;-80
2023/12/06 02:25:14;;;;;;;6.68;3.33;;;;;;;3.77;78.02;93433.53;5065725;28;20040;-81
2023/12/06 02:27:44;;;;;;;11.02;4.03;;;;;;;3.77;77.77;93444.06;5065560;28;20021;-82
2023/12/06 02:30:12;;;;;;;10.90;4.60;;;;;;;3.80;77.67;93438.22;5065673;28;20031;-82
2023/12/06 02:32:38;;;;;;;13.65;5.35;;;;;;;3.77;77.61;93444.06;5065522;28;20017;-82
2023/12/06 02:35:13;;;;;;;15.65;7.40;;;;;;;3.81;77.85;93439.81;5065786;28;20039;-82
2023/12/06 02:37:41;;;;;;;13.77;6.63;;;;;;;3.84;78.15;93437.66;5065438;28;20024;-79
2023/12/06 02:40:11;;;;;;;15.45;7.18;;;;;;;3.88;78.15;93441.31;5065401;28;20020;-79
2023/12/06 02:42:37;;;;;;;15.65;7.35;;;;;;;3.88;77.79;93433.41;5065157;28;20312;-80
2023/12/06 02:45:03;;;;;;;13.43;6.80;;;;;;;3.89;77.75;93432.31;5065465;28;20048;-80
2023/12/06 02:47:28;;;;;;;12.88;6.38;;;;;;;3.88;77.74;93426.28;5065341;28;20088;-80
2023/12/06 02:49:54;;;;;;;12.48;5.95;;;;;;;3.87;77.39;93416.81;5064248;28;20315;-80
2023/12/06 02:52:20;;;;;;;10.57;5.53;;;;;;;3.84;77.62;93421.84;5065125;28;20024;-80
2023/12/06 02:54:45;;;;;;;8.15;4.60;;;;;;;3.77;78.00;93417.69;5065003;28;20031;-78
2023/12/06 02:57:10;;;;;;;9.25;3.78;;;;;;;3.77;78.48;93417.69;5064965;28;20096;-79
2023/12/06 02:59:36;;;;;;;7.38;2.55;;;;;;;3.78;78.74;93414.00;5065035;28;20036;-79
2023/12/06 03:02:02;;;;;;;4.55;2.13;;;;;;;3.85;78.96;93403.13;5064922;28;20024;-78
2023/12/06 03:04:27;;;;;;;5.22;2.58;;;;;;;3.87;79.24;93402.81;5065151;28;20342;-78
2023/12/06 03:06:52;;;;;;;5.40;2.50;;;;;;;3.92;78.85;93397.50;5063715;28;20051;-78
2023/12/06 03:09:18;;;;;;;6.00;3.50;;;;;;;3.98;78.54;93399.00;5064680;28;20029;-79
2023/12/06 03:11:43;;;;;;;7.18;3.67;;;;;;;4.01;78.34;93401.88;5064576;28;20095;-79
2023/12/06 03:14:09;;;;;;;6.15;3.03;;;;;;;4.05;77.76;93394.19;5064828;28;20044;-78
2023/12/06 03:16:34;;;;;;;5.78;3.15;;;;;;;4.05;77.76;93396.81;5064594;28;20421;-78
2023/12/06 03:19:01;;;;;;;5.70;3.47;;;;;;;4.08;77.48;93390.19;5064741;28;20025;-78
2023/12/06 03:21:27;;;;;;;10.32;4.13;;;;;;;4.10;77.10;93390.69;5064429;28;20029;-79
2023/12/06 03:23:52;;;;;;;7.00;3.03;;;;;;;4.07;77.31;93392.06;5064547;28;20070;-78
2023/12/06 03:26:18;;;;;;;6.63;3.65;;;;;;;4.06;77.17;93379.91;5064619;28;20124;-78
2023/12/06 03:28:43;;;;;;;9.48;3.50;;;;;;;4.00;77.48;93383.69;5064383;28;20021;-78
2023/12/06 03:31:08;;;;;;;5.68;3.20;;;;;;;3.96;77.62;93380.03;5064359;28;20017;-79
2023/12/06 03:33:34;;;;;;;9.02;4.60;;;;;;;3.96;77.41;93378.19;5064100;28;20021;-79
2023/12/06 03:35:59;;;;;;;9.85;4.85;;;;;;;3.98;77.43;93378.69;5064235;28;20065;-79
2023/12/06 03:38:25;;;;;;;10.13;3.88;;;;;;;3.96;77.53;93380.03;5064430;28;20067;-78
2023/12/06 03:40:50;;;;;;;4.97;2.53;;;;;;;3.95;77.55;93389.03;5062844;28;20021;-79
2023/12/06 03:43:16;;;;;;;4.10;2.72;;;;;;;3.96;77.75;93377.41;5064147;28;20036;-78
2023/12/06 03:45:42;;;;;;;4.72;2.30;;;;;;;3.98;77.71;93372.63;5064009;28;20027;-77
2023/12/06 03:48:08;;;;;;;5.63;2.50;;;;;;;3.90;78.50;93370.63;5062864;28;20323;-78
2023/12/06 03:50:33;;;;;;;6.60;3.17;;;;;;;3.92;79.00;93373.78;5062887;28;20032;-77
2023/12/06 03:52:59;;;;;;;4.97;2.78;;;;;;;3.93;78.82;93372.69;5063916;28;20040;-77
2023/12/06 03:55:25;;;;;;;3.08;1.92;;;;;;;3.94;79.22;93384.81;5064159;28;20017;-83
2023/12/06 03:57:50;;;;;;;3.80;1.95;;;;;;;3.99;78.50;93374.22;5063618;28;20052;-83
2023/12/06 04:00:16;;;;;;;4.97;2.20;;;;;;;3.99;78.79;93376.84;5063928;28;20028;-82
2023/12/06 04:02:41;;;;;;;4.47;2.15;;;;;;;3.97;78.52;93368.44;5063912;28;20059;-82
2023/12/06 04:05:08;;;;;;;5.13;2.17;;;;;;;4.06;78.22;93372.00;5063755;28;20039;-82
2023/12/06 04:07:34;;;;;;;7.50;2.03;;;;;;;4.06;78.12;93366.72;5063907;28;20073;-82
2023/12/06 04:10:00;;;;;;;6.35;3.20;;;;;;;4.07;77.10;93362.22;5063886;28;20035;-82
2023/12/06 04:12:26;;;;;;;5.03;2.58;;;;;;;4.06;77.08;93377.28;5064357;28;20029;-82
2023/12/06 04:14:53;;;;;;;4.95;2.75;;;;;;;4.05;77.79;93359.91;5064276;28;20243;-83
2023/12/06 04:17:19;;;;;;;3.83;2.10;;;;;;;4.08;78.15;93377.00;5063836;28;20199;-81
2023/12/06 04:19:44;;;;;;;3.50;1.85;;;;;;;4.06;78.40;93376.50;5063580;28;20037;-81
2023/12/06 04:22:10;;;;;;;4.57;3.03;;;;;;;4.13;78.54;93372.47;5063268;28;20071;-81
2023/12/06 04:24:37;;;;;;;9.75;2.97;;;;;;;4.15;78.32;93375.59;5063810;28;20044;-82
2023/12/06 04:27:03;;;;;;;5.53;2.78;;;;;;;4.19;78.31;93383.69;5063524;28;20027;-81
2023/12/06 04:29:29;;;;;;;4.72;2.28;;;;;;;4.18;77.47;93372.38;5063729;28;20296;-82
2023/12/06 04:31:54;;;;;;;5.60;2.97;;;;;;;4.18;77.65;93372.38;5063780;28;20020;-82
2023/12/06 04:34:20;;;;;;;7.28;3.40;;;;;;;4.21;77.99;93379.72;5063514;28;20025;-81
2023/12/06 04:36:45;;;;;;;4.38;2.60;;;;;;;4.21;78.61;93378.91;5063412;28;20042;-81
2023/12/06 04:39:11;;;;;;;6.13;3.60;;;;;;;4.18;78.52;93371.59;5063912;28;20021;-82
2023/12/06 04:41:36;;;;;;;4.90;3.00;;;;;;;4.15;77.60;93377.41;5063920;28;20035;-81
2023/12/06 04:44:02;;;;;;;5.97;3.65;;;;;;;4.18;77.70;93379.50;5063908;28;20020;-81
2023/12/06 04:46:27;;;;;;;7.22;3.80;;;;;;;4.22;77.21;93381.28;5064094;28;20029;-81
2023/12/06 04:48:53;;;;;;;6.10;3.08;;;;;;;4.23;77.28;93379.41;5063948;28;20032;-81
2023/12/06 04:51:18;;;;;;;5.05;2.67;;;;;;;4.20;77.19;93372.88;5062701;28;20223;-83
2023/12/06 04:53:44;;;;;;;5.82;2.90;;;;;;;4.18;77.54;93374.22;5064035;28;20138;-83
2023/12/06 04:56:11;;;;;;;3.92;2.60;;;;;;;4.18;77.50;93380.28;5063853;28;20024;-82
2023/12/06 04:58:37;;;;;;;4.63;2.72;;;;;;;4.15;77.53;93385.34;5063906;28;20047;-81
2023/12/06 05:01:04;;;;;;;7.57;2.95;;;;;;;4.14;77.77;93381.91;5062872;28;20246;-84
2023/12/06 05:03:30;;;;;;;5.60;2.50;;;;;;;4.17;77.61;93378.72;5063804;28;20016;-81
2023/12/06 05:05:55;;;;;;;4.95;2.80;;;;;;;4.17;78.01;93370.81;5063302;28;20175;-80
2023/12/06 05:08:21;;;;;;;5.28;2.90;;;;;;;4.19;78.41;93381.88;5063015;28;20043;-80
2023/12/06 05:10:47;;;;;;;6.53;3.10;;;;;;;4.16;78.15;93387.69;5063425;28;20044;-83
2023/12/06 05:13:13;;;;;;;5.68;2.75;;;;;;;4.04;78.67;93386.56;5062970;28;20315;-83
2023/12/06 05:15:38;;;;;;;8.18;3.10;;;;;;;4.00;79.15;93383.69;5063694;28;20071;-82
2023/12/06 05:18:04;;;;;;;5.43;2.92;;;;;;;3.94;79.76;93379.53;5063600;28;20308;-82
2023/12/06 05:20:29;;;;;;;6.65;2.90;;;;;;;3.99;80.73;93382.13;5063509;28;20195;-82
2023/12/06 05:22:55;;;;;;;4.18;2.58;;;;;;;4.00;80.40;93376.56;5063298;28;20032;-79
2023/12/06 05:25:20;;;;;;;5.93;3.65;;;;;;;4.04;80.88;93376.78;5062850;28;20025;-79
2023/12/06 05:27:46;;;;;;;5.38;2.83;;;;;;;4.11;80.58;93381.69;5061590;28;20044;-80
2023/12/06 05:30:12;;;;;;;4.97;2.55;;;;;;;4.15;80.33;93374.78;5063138;28;20096;-81
2023/12/06 05:32:37;;;;;;;5.18;2.92;;;;;;;4.17;80.09;93373.47;5063315;28;20036;-83
2023/12/06 05:35:04;;;;;;;4.93;3.00;;;;;;;4.23;80.50;93374.16;5062997;28;20036;-78
2023/12/06 05:37:30;;;;;;;7.18;2.95;;;;;;;4.30;80.13;93384.38;5063009;28;20331;-79
2023/12/06 05:39:55;;;;;;;5.25;3.00;;;;;;;4.31;80.34;93383.28;5063477;28;20085;-79
2023/12/06 05:42:21;;;;;;;6.03;3.40;;;;;;;4.30;80.85;93379.88;5063150;28;20051;-79
2023/12/06 05:44:46;;;;;;;7.82;2.88;;;;;;;4.32;81.32;93369.81;5062893;28;20035;-78
2023/12/06 05:47:12;;;;;;;6.82;3.22;;;;;;;4.39;81.33;93374.72;5062796;28;20025;-79
2023/12/06 05:49:37;;;;;;;7.32;4.07;;;;;;;4.46;81.75;93372.53;5062616;28;20149;-81
2023/12/06 05:52:03;;;;;;;6.93;3.88;;;;;;;4.53;81.88;93375.56;5062922;28;20056;-79
2023/12/06 05:54:28;;;;;;;8.73;3.72;;;;;;;4.60;81.75;93373.38;5061791;28;20024;-79
2023/12/06 05:56:54;;;;;;;8.35;4.53;;;;;;;4.65;82.19;93382.28;5062972;28;20369;-79
2023/12/06 05:59:20;;;;;;;8.93;3.92;;;;;;;4.66;82.18;93379.38;5062739;28;20087;-81
2023/12/06 06:01:45;;;;;;;9.70;4.60;;;;;;;4.67;82.36;93378.28;5062531;28;20084;-79
2023/12/06 06:04:10;;;;;;;11.15;5.05;;;;;;;4.70;82.79;93376.91;5061254;28;20025;-77
2023/12/06 06:06:36;;;;;;;10.75;4.07;;;;;;;4.73;83.27;93379.75;5062449;28;20115;-76
2023/12/06 06:09:02;;;;;;;11.55;4.38;;;;;;;4.80;83.64;93382.84;5062439;28;20025;-76
2023/12/06 06:11:27;;;;;;;8.40;4.07;;;;;;;4.87;83.44;93379.03;5063369;28;20017;-83
2023/12/06 06:13:54;;;;;;;9.32;5.07;;;;;;;4.93;83.56;93389.22;5063274;28;20215;-84
2023/12/06 06:16:20;;;;;;;9.95;4.38;;;;;;;4.96;83.80;93387.88;5063093;28;20040;-82
2023/12/06 06:18:46;;;;;;;8.80;4.10;;;;;;;5.03;83.96;93390.94;5063062;28;20025;-82
2023/12/06 06:21:11;;;;;;;8.85;4.53;;;;;;;5.09;83.95;93386.31;5063212;28;20334;-82
2023/12/06 06:23:37;;;;;;;8.07;4.15;;;;;;;5.11;83.71;93384.97;5064368;28;20084;-81
2023/12/06 06:26:02;;;;;;;7.82;4.03;;;;;;;5.14;83.67;93384.38;5066759;28;20056;-81
2023/12/06 06:28:29;;;;;;;8.82;3.67;;;;;;;5.20;83.71;93385.09;5066009;28;20067;-79
2023/12/06 06:30:55;;;;;;;7.72;3.85;;;;;;;5.27;83.43;93384.69;5065930;28;20020;-88
2023/12/06 06:33:20;;;;;;;8.55;4.25;;;;;;;5.31;83.29;93383.03;5065544;28;20024;-88
2023/12/06 06:35:46;;;;;;;8.27;4.20;;;;;;;5.32;83.05;93374.84;5066836;28;20033;-88
2023/12/06 06:38:11;;;;;;;10.23;4.53;;;;;;;5.37;83.28;93380.03;5066252;28;20029;-88
2023/12/06 06:40:37;;;;;;;14.07;5.93;;;;;;;5.37;83.23;93372.13;5066872;28;20369;-89
2023/12/06 06:43:03;;;;;;;9.02;4.32;;;;;;;5.39;83.20;93377.91;5067104;28;20036;-86
2023/12/06 06:45:28;;;;;;;12.00;5.03;;;;;;;5.45;83.04;93381.22;5066350;28;20021;-86
2023/12/06 06:47:54;;;;;;;7.30;4.45;;;;;;;5.45;83.01;93377.78;5066573;28;20021;-87
2023/12/06 06:50:20;;;;;;;9.55;4.82;;;;;;;5.49;82.82;93376.91;5066158;28;20028;-89
2023/12/06 06:52:46;;;;;;;12.68;5.15;;;;;;;5.52;82.73;93375.56;5066711;28;20087;-87
2023/12/06 06:55:11;;;;;;;8.40;4.32;;;;;;;5.52;82.99;93378.97;5066891;28;20044;-88
2023/12/06 06:57:37;;;;;;;9.68;4.90;;;;;;;5.56;82.67;93379.19;5065516;28;20107;-79
2023/12/06 07:00:04;;;;;;;7.00;4.40;;;;;;;5.57;82.94;93375.44;5063580;28;20048;-77
2023/12/06 07:02:29;;;;;;;8.57;4.40;;;;;;;5.57;82.62;93373.59;5064740;28;20020;-77
2023/12/06 07:04:55;;;;;;;7.22;4.00;;;;;;;5.58;82.87;93371.75;5065456;28;20017;-78
2023/12/06 07:07:21;;;;;;;9.65;4.63;;;;;;;5.57;83.11;93378.88;5064277;28;20032;-78
2023/12/06 07:09:46;;;;;;;7.70;4.18;;;;;;;5.61;82.77;93377.22;5065360;28;20229;-78
2023/12/06 07:12:12;;;;;;;11.45;5.18;;;;;;;5.62;83.16;93367.44;5065078;28;20357;-77
2023/12/06 07:14:37;;;;;;;7.65;4.10;;;;;;;5.62;83.18;93383.28;5064875;28;20012;-76
2023/12/06 07:17:04;;;;;;;13.70;4.95;;;;;;;5.51;83.47;93374.75;5064953;28;20382;-77
2023/12/06 07:19:30;;;;;;;9.02;5.13;;;;;;;5.55;83.69;93383.66;5064778;28;20052;-78
2023/12/06 07:21:55;;;;;;;11.57;5.45;;;;;;;5.58;83.69;93382.31;5063256;28;20363;-78
2023/12/06 07:24:21;;;;;;;9.60;5.75;;;;;;;5.60;83.45;93382.81;5063145;28;20020;-78
2023/12/06 07:26:46;;;;;;;10.32;6.55;;;;;;;5.61;83.58;93387.00;5062945;28;20387;-78
2023/12/06 07:29:15;;;;;;;15.80;7.35;;;;;;;5.52;83.63;93394.84;5063128;28;20021;-78
2023/12/06 07:31:41;;;;;;;15.73;6.32;;;;;;;5.50;84.25;93393.56;5063168;28;20017;-78
2023/12/06 07:34:06;;;;;;;12.82;7.50;;;;;;;5.54;84.40;93397.19;5063317;28;20315;-78
2023/12/06 07:36:32;;;;;;;11.88;7.85;;;;;;;5.58;84.13;93392.91;5064273;28;20223;-78
2023/12/06 07:38:57;;;;;;;15.10;8.60;;;;;;;5.61;84.15;93402.88;5065078;28;20032;-78
2023/12/06 07:41:23;;;;;;;13.85;7.85;;;;;;;5.66;84.16;93394.84;5064870;28;20032;-77
2023/12/06 07:43:49;;;;;;;12.55;6.00;;;;;;;5.68;84.20;93398.00;5063576;28;20041;-78
2023/12/06 07:46:14;;;;;;;13.05;7.30;;;;;;;5.73;83.95;93405.81;5064226;28;20322;-77
2023/12/06 07:48:40;;;;;;;11.80;6.05;;;;;;;5.75;84.14;93392.31;5064715;28;20091;-77
2023/12/06 07:51:06;;;;;;;11.75;6.22;;;;;;;5.80;83.96;93394.84;5064799;28;20051;-77
2023/12/06 07:53:31;;;;;;;12.35;5.65;;;;;;;5.78;84.06;93397.78;5064504;28;20025;-76
2023/12/06 07:55:58;;;;;;;12.00;5.63;;;;;;;5.79;83.88;93399.34;5064658;28;20028;-77
2023/12/06 07:58:30;;;;;;;13.05;5.75;;;;;;;5.77;84.13;93390.94;5064436;28;20110;-76
2023/12/06 08:00:58;;;;;;;;;;;;;;;5.79;84.42;93396.69;5064995;28;20065;-76
2023/12/06 08:03:30;;;;;;;9.27;5.15;;;;;;;5.79;84.76;93391.41;5063784;28;19950;-77
2023/12/06 08:05:55;;;;;;;13.50;6.00;;;;;;;5.83;84.96;93392.41;5063964;28;20051;-78
2023/12/06 08:08:21;;;;;;;11.02;5.50;;;;;;;5.88;84.79;93391.50;5063919;28;20032;-78
2023/12/06 08:10:46;;;;;;;10.57;5.15;;;;;;;5.88;84.46;93396.03;5064169;28;20049;-78
2023/12/06 08:13:12;;;;;;;12.43;6.15;;;;;;;5.89;84.93;93392.31;5063619;28;20029;-78
2023/12/06 08:15:37;;;;;;;19.00;6.60;;;;;;;5.88;84.82;93386.22;5064043;28;20048;-78
2023/12/06 08:18:03;;;;;;;10.80;5.75;;;;;;;5.93;84.29;93393.28;5063577;28;20037;-78
2023/12/06 08:20:28;;;;;;;14.48;6.25;;;;;;;5.93;84.40;93388.78;5063329;28;20088;-78
2023/12/06 08:22:54;;;;;;;15.35;6.25;;;;;;;5.93;84.53;93388.00;5063689;28;20028;-79
2023/12/06 08:25:20;;;;;;;10.35;5.28;;;;;;;5.96;84.82;93390.06;5063584;28;20357;-80
2023/12/06 08:27:45;;;;;;;11.32;5.38;;;;;;;5.95;84.47;93396.44;5063624;28;20021;-80
2023/12/06 08:30:11;;;;;;;8.38;4.75;;;;;;;5.98;84.75;93390.56;5063402;28;20028;-81
2023/12/06 08:32:37;;;;;;;10.40;5.32;;;;;;;6.05;84.78;93390.97;5063470;28;20028;-80
2023/12/06 08:35:05;;;;;;;11.85;5.43;;;;;;;6.10;84.25;93387.41;5063710;28;20223;-80
2023/12/06 08:37:31;;;;;;;16.08;6.72;;;;;;;6.13;84.46;93392.91;5062189;28;20090;-80
2023/12/06 08:39:56;;;;;;;14.45;6.63;;;;;;;6.18;84.08;93384.84;5062139;28;20323;-80
2023/12/06 08:42:22;;;;;;;12.02;5.75;;;;;;;6.21;83.79;93383.50;5063120;28;20234;-76
2023/12/06 08:44:47;;;;;;;13.93;6.00;;;;;;;6.27;83.63;93384.16;5063159;28;20017;-76
2023/12/06 08:47:13;;;;;;;12.23;4.78;;;;;;;6.35;83.34;93381.59;5062207;28;20039;-76
2023/12/06 08:49:39;;;;;;;11.75;5.03;;;;;;;6.38;82.76;93380.22;5062774;28;20028;-76
2023/12/06 08:52:07;;;;;;;9.05;4.80;;;;;;;6.39;82.36;93379.13;5063073;28;20264;-76
2023/12/06 08:54:33;;;;;;;10.60;5.55;;;;;;;6.41;83.01;93382.25;5063081;28;20040;-76
2023/12/06 08:56:59;;;;;;;10.55;5.78;;;;;;;6.44;82.89;93379.03;5062597;28;20274;-76
2023/12/06 08:59:24;;;;;;;12.70;5.85;;;;;;;6.41;82.92;93377.75;5062812;28;20024;-76
2023/12/06 09:01:50;;;;;;;19.40;4.30;;;;;;;6.44;82.37;93373.72;5062775;28;20032;-77
2023/12/06 09:04:16;;;;;;;13.10;5.28;;;;;;;6.49;82.75;93370.94;5062676;28;20021;-76
2023/12/06 09:06:41;;;;;;;10.73;4.82;;;;;;;6.51;82.63;93368.78;5061422;28;20032;-77
2023/12/06 09:09:07;;;;;;;11.45;5.63;;;;;;;6.55;82.50;93366.34;5062326;28;20058;-76
2023/12/06 09:11:33;;;;;;;8.35;4.25;;;;;;;6.57;82.70;93370.28;5062422;28;20036;-76
2023/12/06 09:13:58;;;;;;;9.40;4.60;;;;;;;6.63;82.52;93357.69;5062648;28;20029;-76
2023/12/06 09:16:24;;;;;;;9.50;4.55;;;;;;;6.64;82.26;93364.56;5062736;28;20029;-76
2023/12/06 09:18:49;;;;;;;8.15;4.40;;;;;;;6.67;81.91;93363.16;5062337;28;20043;-76
2023/12/06 09:21:14;;;;;;;11.13;5.35;;;;;;;6.62;81.87;93359.53;5061172;28;20028;-76
2023/12/06 09:23:40;;;;;;;10.50;4.28;;;;;;;6.55;81.70;93356.53;5062584;28;20021;-76
2023/12/06 09:26:06;;;;;;;9.55;4.57;;;;;;;6.54;81.86;93348.91;5062497;28;20033;-75
2023/12/06 09:28:31;;;;;;;12.70;4.90;;;;;;;6.55;82.50;93345.94;5061121;28;20028;-75
2023/12/06 09:30:57;;;;;;;10.60;4.90;;;;;;;6.56;82.44;93346.72;5062665;28;20076;-75
2023/12/06 09:33:23;;;;;;;10.82;5.60;;;;;;;6.58;82.82;93347.22;5062638;28;20359;-76
2023/12/06 09:35:48;;;;;;;10.38;5.07;;;;;;;6.58;83.05;93345.34;5062601;28;20040;-75
2023/12/06 09:38:13;;;;;;;12.65;5.35;;;;;;;6.66;82.64;93345.72;5062408;28;20306;-76
2023/12/06 09:40:39;;;;;;;8.05;4.55;;;;;;;6.67;82.83;93336.69;5062648;28;20029;-76
2023/12/06 09:43:05;;;;;;;11.48;5.00;;;;;;;6.71;82.58;93335.75;5062438;28;20032;-76
2023/12/06 09:45:31;;;;;;;8.38;4.30;;;;;;;6.78;81.88;93338.78;5062399;28;20044;-76
2023/12/06 09:47:57;;;;;;;9.27;4.10;;;;;;;6.74;81.71;93337.06;5062411;28;20196;-76
2023/12/06 09:50:26;;;;;;;9.50;4.70;;;;;;;6.82;81.71;93336.31;5061136;28;20032;-76
2023/12/06 09:52:55;;;;;;;6.55;3.63;;;;;;;6.83;81.59;93333.34;5062403;28;20219;-76
2023/12/06 09:55:25;;;;;;;7.88;3.88;;;;;;;6.86;81.35;93331.19;5062061;28;20052;-78
2023/12/06 09:57:59;;;;;;;8.57;3.58;;;;;;;6.96;81.38;93323.00;5062142;28;20041;-76
2023/12/06 10:00:24;;;;;;;7.30;3.45;;;;;;;7.08;81.00;93325.88;5066495;28;20024;-75
2023/12/06 10:02:52;;;;;;;11.07;4.07;;;;;;;7.17;80.62;93337.31;5065916;28;20036;-77
2023/12/06 10:05:18;;;;;;;10.68;3.78;;;;;;;7.20;79.66;93331.38;5064885;28;20048;-79
2023/12/06 10:07:44;;;;;;;7.10;3.35;;;;;;;7.20;79.09;93328.72;5065993;28;20254;-76
2023/12/06 10:10:17;;;;;;;5.53;2.97;;;;;;;7.28;78.50;93313.19;5066043;28;20028;-76
2023/12/06 10:12:50;;;;;;;6.47;3.38;;;;;;;7.28;78.35;93319.25;5065685;28;20055;-76
2023/12/06 10:15:16;;;;;;;6.65;3.20;;;;;;;7.28;78.95;93316.63;5065833;28;20227;-76
2023/12/06 10:17:42;;;;;;;8.13;3.33;;;;;;;7.27;78.74;93316.94;5065963;28;20031;-76
2023/12/06 10:20:08;;;;;;;7.38;3.70;;;;;;;7.31;78.94;93310.72;5065982;28;20041;-83
2023/12/06 10:22:34;;;;;;;11.23;4.63;;;;;;;7.30;78.95;93313.66;5066011;28;20024;-81
2023/12/06 10:25:00;;;;;;;6.57;3.90;;;;;;;7.32;78.92;93309.63;5065777;28;20096;-79
2023/12/06 10:27:29;;;;;;;8.20;3.53;;;;;;;7.34;79.04;93319.91;5065901;28;20062;-81
2023/12/06 10:29:55;;;;;;;7.25;3.65;;;;;;;7.36;78.93;93315.09;5064647;28;20051;-82
2023/12/06 10:32:21;;;;;;;6.40;3.47;;;;;;;7.35;78.58;93309.03;5066632;28;20315;-83
2023/12/06 10:34:47;;;;;;;5.70;3.05;;;;;;;7.33;78.79;93305.88;5066005;28;20021;-81
2023/12/06 10:37:18;;;;;;;5.97;2.75;;;;;;;7.39;78.47;93311.84;5065786;28;20045;-80
2023/12/06 10:39:48;;;;;;;5.97;2.35;;;;;;;7.44;78.19;93304.50;5064542;28;20035;-79
2023/12/06 10:42:19;;;;;;;8.55;2.95;;;;;;;7.51;77.89;93300.63;5065414;28;20048;-77
2023/12/06 10:44:45;;;;;;;9.45;3.17;;;;;;;7.51;77.34;93297.97;5065510;28;20223;-77
2023/12/06 10:47:12;;;;;;;7.93;2.95;;;;;;;7.56;77.26;93298.63;5065013;28;20025;-77
2023/12/06 10:49:38;;;;;;;4.45;2.90;;;;;;;7.51;77.06;93300.63;5065381;28;20215;-77
2023/12/06 10:52:04;;;;;;;11.45;3.38;;;;;;;7.46;77.34;93298.13;5065195;28;20316;-78
2023/12/06 10:54:30;;;;;;;6.10;2.90;;;;;;;7.41;77.49;93294.53;5065268;28;20029;-77
2023/12/06 10:56:56;;;;;;;9.45;3.42;;;;;;;7.45;77.55;93292.06;5065114;28;20060;-83
2023/12/06 10:59:29;;;;;;;6.60;3.40;;;;;;;7.46;77.11;93295.50;5065564;28;20025;-81
2023/12/06 11:01:55;;;;;;;13.60;3.33;;;;;;;7.46;77.13;93287.53;5066587;28;20044;-90
2023/12/06 11:04:25;;;;;;;148.48;77.35;;;;;;;7.44;77.98;93296.56;5064536;28;20048;-81
2023/12/06 11:07:30;;;;;;;208.75;90.18;;;;;;;7.41;78.53;93291.88;5065666;28;20362;-83
2023/12/06 11:10:24;;;;;;;18.08;10.55;;;;;;;7.35;78.25;93293.09;5064568;28;20024;-83
2023/12/06 11:13:36;;;;;;;6.82;3.95;;;;;;;7.34;77.89;93280.94;5065598;28;20017;-84
2023/12/06 11:16:29;;;;;;;7.13;3.40;;;;;;;7.28;78.45;93290.09;5065595;28;20128;-84
2023/12/06 11:18:56;;;;;;;7.07;3.55;;;;;;;7.27;78.91;93291.22;5065175;28;20096;-83
2023/12/06 11:21:24;;;;;;;9.70;3.72;;;;;;;7.37;79.00;93290.16;5064837;28;20040;-85
2023/12/06 11:23:51;;;;;;;7.18;3.75;;;;;;;7.38;79.28;93286.41;5065411;28;20044;-86
2023/12/06 11:26:17;;;;;;;8.82;3.97;;;;;;;7.42;78.53;93292.66;5064316;28;20025;-87
2023/12/06 11:28:43;;;;;;;5.25;3.10;;;;;;;7.51;78.14;93284.72;5065714;28;20036;-80
2023/12/06 11:31:14;;;;;;;6.65;3.45;;;;;;;7.58;78.40;93290.38;5064645;28;20100;-81
2023/12/06 11:33:40;;;;;;;8.25;3.53;;;;;;;7.59;78.08;93287.44;5064900;28;20227;-81
2023/12/06 11:36:15;;;;;;;23.63;12.32;;;;;;;7.65;78.18;93285.38;5064572;28;20095;-81